Time;durP1;ratioP1;P1;durP2;ratioP2;P2;SDS_P1;SDS_P2;PMS_P1;PMS_P2;Temp;Humidity;BMP_temperature;BMP_pressure;BME280_temperature;BME280_humidity;BME280_pressure;Samples;Min_cycle;Max_cycle;Signal;HPM_P1;HPM_P2
2022/06/19 00:00:07;;;;;;;14.67;3.57;;;27.00;40.80;;;;;;5042698;28;20057;-58
2022/06/19 00:02:36;;;;;;;12.55;3.33;;;27.00;41.10;;;;;;5043318;28;20845;-55
2022/06/19 00:05:04;;;;;;;17.15;4.15;;;27.00;40.90;;;;;;5043758;28;20401;-57
2022/06/19 00:07:32;;;;;;;15.88;3.47;;;27.00;40.90;;;;;;5043355;28;20049;-55
2022/06/19 00:09:59;;;;;;;14.15;3.15;;;27.00;41.00;;;;;;5042659;28;20063;-58
2022/06/19 00:12:28;;;;;;;16.90;3.75;;;26.90;41.10;;;;;;5041848;28;20057;-56
2022/06/19 00:14:55;;;;;;;13.10;3.08;;;26.90;41.10;;;;;;5042915;28;20049;-58
2022/06/19 00:17:24;;;;;;;10.35;3.20;;;26.90;41.30;;;;;;5043079;28;20061;-54
2022/06/19 00:19:53;;;;;;;18.48;3.97;;;26.90;41.40;;;;;;5043354;28;20064;-56
2022/06/19 00:22:20;;;;;;;16.38;3.50;;;26.80;41.00;;;;;;5041808;28;20053;-58
2022/06/19 00:24:48;;;;;;;14.07;3.47;;;26.80;41.00;;;;;;5042194;28;20404;-57
2022/06/19 00:27:15;;;;;;;9.73;3.30;;;26.80;41.00;;;;;;5040788;28;20060;-55
2022/06/19 00:29:43;;;;;;;14.52;3.53;;;26.80;41.00;;;;;;5042758;28;20519;-58
2022/06/19 00:32:10;;;;;;;18.60;3.58;;;26.80;41.10;;;;;;5042984;28;20056;-55
2022/06/19 00:34:39;;;;;;;16.35;3.65;;;26.80;41.00;;;;;;5044018;28;20065;-57
2022/06/19 00:37:07;;;;;;;14.77;2.88;;;26.70;41.00;;;;;;5043297;28;20045;-56
2022/06/19 00:39:39;;;;;;;15.65;3.28;;;26.70;41.00;;;;;;5042552;28;20060;-57
2022/06/19 00:42:08;;;;;;;14.27;2.90;;;26.70;41.20;;;;;;5041288;28;20056;-58
2022/06/19 00:44:36;;;;;;;9.75;3.05;;;26.60;41.10;;;;;;5043370;28;20056;-58
2022/06/19 00:47:08;;;;;;;14.90;2.97;;;26.60;41.20;;;;;;5042862;28;20053;-59
2022/06/19 00:49:40;;;;;;;12.68;3.67;;;26.60;41.10;;;;;;5042681;28;20060;-58
2022/06/19 00:52:11;;;;;;;19.60;3.60;;;26.60;41.00;;;;;;5042058;28;20064;-55
2022/06/19 00:54:46;;;;;;;16.02;3.25;;;26.60;41.00;;;;;;5042461;28;20052;-56
2022/06/19 00:57:15;;;;;;;14.77;3.22;;;26.60;41.10;;;;;;5041187;28;20049;-58
2022/06/19 00:59:47;;;;;;;17.17;3.45;;;26.60;41.20;;;;;;5042561;28;20416;-56
2022/06/19 01:02:15;;;;;;;13.57;3.25;;;26.60;41.10;;;;;;5041969;28;20053;-57
2022/06/19 01:04:49;;;;;;;18.05;3.30;;;26.50;41.10;;;;;;5042322;28;20061;-55
2022/06/19 01:07:17;;;;;;;;;;;26.50;41.00;;;;;;5043312;28;20049;-57
2022/06/19 01:09:45;;;;;;;13.02;3.17;;;26.60;40.90;;;;;;5041859;28;19984;-54
2022/06/19 01:12:13;;;;;;;12.55;3.15;;;26.60;40.70;;;;;;5041366;28;20087;-55
2022/06/19 01:14:43;;;;;;;8.10;2.80;;;26.50;40.60;;;;;;5042146;28;20136;-57
2022/06/19 01:17:13;;;;;;;17.17;3.53;;;26.50;40.60;;;;;;5042769;28;20053;-57
2022/06/19 01:19:44;;;;;;;13.40;3.13;;;26.50;40.60;;;;;;5041778;28;20055;-58
2022/06/19 01:22:21;;;;;;;14.02;3.08;;;26.50;41.10;;;;;;5041551;28;20476;-57
2022/06/19 01:25:04;;;;;;;16.60;3.72;;;26.50;40.70;;;;;;5042229;28;20056;-58
2022/06/19 01:30:20;;;;;;;13.95;3.20;;;26.50;40.80;;;;;;5047666;28;20060;-57
2022/06/19 01:32:50;;;;;;;18.83;3.60;;;26.50;40.80;;;;;;5041913;28;20068;-56
2022/06/19 01:35:21;;;;;;;12.13;2.92;;;26.40;40.60;;;;;;5042016;28;20057;-58
2022/06/19 01:37:50;;;;;;;11.77;3.05;;;26.50;40.70;;;;;;5042318;28;20044;-55
2022/06/19 01:40:22;;;;;;;15.40;3.20;;;26.50;40.70;;;;;;5040081;28;20070;-56
2022/06/19 01:42:51;;;;;;;22.17;4.13;;;26.40;40.80;;;;;;5043808;28;20048;-57
2022/06/19 01:45:19;;;;;;;12.10;3.25;;;26.50;40.90;;;;;;5041380;28;20400;-59
2022/06/19 01:47:47;;;;;;;12.23;2.95;;;26.40;40.70;;;;;;5042581;28;20053;-57
2022/06/19 01:50:17;;;;;;;16.30;3.65;;;26.40;40.70;;;;;;5041876;28;20493;-57
2022/06/19 01:52:47;;;;;;;14.88;3.38;;;26.40;41.00;;;;;;5041049;28;20060;-56
2022/06/19 01:55:17;;;;;;;14.02;3.22;;;26.40;40.90;;;;;;5041829;28;20057;-56
2022/06/19 01:57:49;;;;;;;13.02;3.33;;;26.40;40.80;;;;;;5041707;28;20059;-54
2022/06/19 02:00:19;;;;;;;12.80;3.08;;;26.40;40.70;;;;;;5042399;28;20052;-58
2022/06/19 02:02:54;;;;;;;11.38;2.70;;;26.40;40.80;;;;;;5041623;28;20061;-58
2022/06/19 02:05:22;;;;;;;17.90;3.28;;;26.40;40.70;;;;;;5011493;28;20057;-57
2022/06/19 02:07:49;;;;;;;7.55;2.30;;;26.40;40.90;;;;;;5042521;28;20049;-54
2022/06/19 02:10:17;;;;;;;12.95;3.33;;;26.40;41.00;;;;;;5040747;28;20067;-56
2022/06/19 02:12:46;;;;;;;10.50;2.90;;;26.40;41.10;;;;;;5041265;28;20507;-58
2022/06/19 02:15:14;;;;;;;19.08;3.53;;;26.40;41.20;;;;;;5042563;28;20053;-57
2022/06/19 02:17:47;;;;;;;15.23;2.97;;;26.40;41.10;;;;;;5040956;28;20052;-58
2022/06/19 02:20:15;;;;;;;10.05;2.63;;;26.30;41.00;;;;;;5041699;28;20059;-58
2022/06/19 02:22:43;;;;;;;18.08;3.30;;;26.30;41.10;;;;;;5042605;28;20049;-53
2022/06/19 02:25:11;;;;;;;12.77;3.25;;;26.30;41.10;;;;;;5041982;28;20064;-55
2022/06/19 02:27:40;;;;;;;15.57;3.20;;;26.30;41.30;;;;;;5042640;28;20515;-57
2022/06/19 02:30:12;;;;;;;15.10;3.60;;;26.20;41.50;;;;;;5040074;28;20060;-58
2022/06/19 02:32:43;;;;;;;17.08;4.25;;;26.20;41.50;;;;;;5042695;28;20408;-57
2022/06/19 02:35:15;;;;;;;15.90;3.35;;;26.20;41.40;;;;;;5042026;28;20056;-58
2022/06/19 02:37:46;;;;;;;14.13;3.60;;;26.20;41.40;;;;;;5041912;28;20048;-58
2022/06/19 02:40:26;;;;;;;22.58;3.80;;;26.10;41.40;;;;;;5040775;28;20049;-57
2022/06/19 02:42:53;;;;;;;14.68;3.53;;;26.10;41.60;;;;;;5042211;28;20052;-57
2022/06/19 02:45:24;;;;;;;17.90;3.70;;;26.10;41.60;;;;;;5041866;28;20049;-57
2022/06/19 02:47:54;;;;;;;21.85;5.05;;;26.10;41.60;;;;;;5046358;28;20056;-57
2022/06/19 02:50:23;;;;;;;13.77;3.17;;;26.00;41.50;;;;;;5045048;28;20057;-58
2022/06/19 02:52:51;;;;;;;13.27;3.85;;;25.90;42.00;;;;;;5044689;28;20424;-52
2022/06/19 02:55:20;;;;;;;12.73;4.05;;;25.90;41.60;;;;;;5043719;28;20057;-57
2022/06/19 02:57:48;;;;;;;15.50;3.20;;;25.90;41.70;;;;;;5045336;28;20057;-61
2022/06/19 03:00:19;;;;;;;14.98;3.40;;;25.90;41.80;;;;;;5046402;28;20056;-57
2022/06/19 03:02:49;;;;;;;18.83;3.45;;;25.90;41.80;;;;;;5045580;28;20416;-56
2022/06/19 03:05:20;;;;;;;15.02;3.63;;;25.80;41.70;;;;;;5044414;28;20056;-57
2022/06/19 03:07:47;;;;;;;16.63;3.65;;;25.80;41.70;;;;;;5045448;28;20049;-58
2022/06/19 03:10:15;;;;;;;22.00;4.15;;;25.80;42.00;;;;;;5043974;28;20060;-56
2022/06/19 03:12:43;;;;;;;12.50;3.30;;;25.80;42.00;;;;;;5043130;28;20049;-57
2022/06/19 03:15:12;;;;;;;14.27;3.05;;;25.70;41.70;;;;;;5043911;28;20064;-58
2022/06/19 03:17:40;;;;;;;17.45;4.20;;;25.70;41.90;;;;;;5045808;28;20045;-56
2022/06/19 03:20:13;;;;;;;17.38;2.80;;;25.70;42.20;;;;;;5045198;28;20049;-56
2022/06/19 03:22:41;;;;;;;26.75;3.97;;;25.70;42.40;;;;;;5043276;28;20044;-58
2022/06/19 03:25:08;;;;;;;26.83;4.25;;;25.60;42.70;;;;;;5044763;28;20061;-57
2022/06/19 03:27:36;;;;;;;14.10;3.30;;;25.60;42.60;;;;;;5046158;28;20048;-59
2022/06/19 03:30:04;;;;;;;18.05;4.63;;;25.60;42.30;;;;;;5044258;28;20131;-58
2022/06/19 03:32:32;;;;;;;22.67;4.57;;;25.60;42.80;;;;;;5045030;28;20404;-57
2022/06/19 03:35:00;;;;;;;15.10;3.92;;;25.60;42.50;;;;;;5045379;28;20052;-56
2022/06/19 03:37:29;;;;;;;14.38;3.78;;;25.60;42.50;;;;;;5044360;28;20064;-56
2022/06/19 03:39:56;;;;;;;20.55;3.70;;;25.60;42.80;;;;;;5045265;28;20435;-53
2022/06/19 03:42:24;;;;;;;15.35;3.28;;;25.60;42.90;;;;;;5042393;28;20049;-57
2022/06/19 03:44:51;;;;;;;13.73;3.50;;;25.50;42.70;;;;;;5043551;28;20064;-57
2022/06/19 03:47:21;;;;;;;18.73;3.70;;;25.50;42.80;;;;;;5044416;28;20449;-53
2022/06/19 03:49:49;;;;;;;15.45;3.67;;;25.50;42.40;;;;;;5044673;28;20496;-55
2022/06/19 03:52:17;;;;;;;16.13;4.07;;;25.60;42.60;;;;;;5043395;28;20053;-56
2022/06/19 03:54:46;;;;;;;21.85;4.63;;;25.50;42.70;;;;;;5042462;28;20045;-55
2022/06/19 03:57:15;;;;;;;18.65;4.38;;;25.60;42.50;;;;;;5041355;28;20055;-54
2022/06/19 03:59:42;;;;;;;22.00;5.05;;;25.60;42.20;;;;;;5043834;28;20053;-55
2022/06/19 04:02:11;;;;;;;15.85;3.95;;;25.60;42.20;;;;;;5044518;28;20049;-55
2022/06/19 04:04:40;;;;;;;17.17;3.63;;;25.60;42.60;;;;;;5044342;28;20068;-58
2022/06/19 04:07:08;;;;;;;15.80;4.10;;;25.70;42.40;;;;;;5044272;28;20049;-55
2022/06/19 04:09:35;;;;;;;23.80;4.05;;;25.70;42.50;;;;;;5043366;28;20061;-57
2022/06/19 04:12:06;;;;;;;22.75;7.75;;;25.70;42.60;;;;;;5043066;28;20064;-50
2022/06/19 04:14:33;;;;;;;20.92;4.80;;;25.80;42.80;;;;;;5043990;28;20057;-54
2022/06/19 04:17:01;;;;;;;18.60;4.30;;;25.80;42.50;;;;;;5044901;28;20056;-56
2022/06/19 04:19:29;;;;;;;23.92;4.88;;;25.90;41.80;;;;;;5044636;28;20056;-56
2022/06/19 04:21:56;;;;;;;26.77;5.22;;;25.90;41.80;;;;;;5043053;28;20504;-50
2022/06/19 04:24:24;;;;;;;20.85;4.18;;;25.90;42.10;;;;;;5045214;28;20412;-57
2022/06/19 04:26:52;;;;;;;55.65;5.28;;;26.00;41.90;;;;;;5042801;28;20045;-59
2022/06/19 04:29:21;;;;;;;26.88;5.35;;;26.00;42.10;;;;;;5043491;28;20052;-49
2022/06/19 04:31:49;;;;;;;22.35;5.03;;;26.10;42.40;;;;;;5043614;28;20609;-58
2022/06/19 04:34:17;;;;;;;21.65;5.45;;;26.10;43.00;;;;;;5043508;28;20053;-59
2022/06/19 04:36:44;;;;;;;38.95;7.43;;;26.10;44.10;;;;;;5043005;28;20064;-49
2022/06/19 04:39:12;;;;;;;25.73;7.22;;;26.10;45.30;;;;;;5043722;28;20568;-50
2022/06/19 04:41:43;;;;;;;19.20;6.72;;;25.90;46.00;;;;;;5040152;28;20075;-56
2022/06/19 04:44:12;;;;;;;15.55;6.53;;;25.80;46.20;;;;;;5043669;28;20056;-52
2022/06/19 04:46:44;;;;;;;19.40;6.95;;;25.70;47.00;;;;;;5044115;28;20057;-58
2022/06/19 04:49:13;;;;;;;17.40;7.00;;;25.50;47.80;;;;;;5043357;28;20056;-56
2022/06/19 04:51:42;;;;;;;22.90;7.35;;;25.40;48.20;;;;;;5043683;28;20071;-51
2022/06/19 04:54:11;;;;;;;20.77;6.45;;;25.20;49.10;;;;;;5044554;28;20067;-49
2022/06/19 04:56:39;;;;;;;19.30;6.95;;;25.00;49.50;;;;;;5041846;28;20067;-57
2022/06/19 04:59:07;;;;;;;13.73;6.45;;;24.80;49.90;;;;;;5043451;28;20056;-58
2022/06/19 05:01:37;;;;;;;18.63;6.65;;;24.60;50.30;;;;;;5042899;28;20060;-48
2022/06/19 05:04:08;;;;;;;23.90;6.45;;;24.40;50.50;;;;;;5043269;28;20049;-44
2022/06/19 05:06:36;;;;;;;17.83;5.50;;;24.20;51.30;;;;;;5043338;28;20060;-61
2022/06/19 05:09:04;;;;;;;14.80;5.20;;;24.00;51.10;;;;;;5043019;28;20451;-59
2022/06/19 05:11:32;;;;;;;13.20;5.13;;;23.90;51.40;;;;;;5042637;28;21574;-52
2022/06/19 05:14:00;;;;;;;16.30;4.85;;;23.60;51.20;;;;;;5042610;28;20072;-61
2022/06/19 05:16:28;;;;;;;15.23;5.38;;;23.50;51.40;;;;;;5042816;28;20053;-56
2022/06/19 05:18:57;;;;;;;21.02;5.07;;;23.40;51.30;;;;;;5042795;28;20052;-47
2022/06/19 05:21:27;;;;;;;25.27;7.55;;;23.20;51.60;;;;;;5043379;28;20485;-56
2022/06/19 05:23:55;;;;;;;12.45;5.00;;;23.10;51.60;;;;;;5041981;28;20052;-53
2022/06/19 05:26:26;;;;;;;19.00;4.97;;;23.00;51.80;;;;;;5041014;28;20059;-57
2022/06/19 05:28:54;;;;;;;18.35;4.85;;;22.90;52.20;;;;;;5044075;28;20052;-52
2022/06/19 05:31:22;;;;;;;18.90;4.43;;;22.80;52.10;;;;;;5042758;28;20063;-55
2022/06/19 05:33:49;;;;;;;11.18;3.25;;;22.80;52.20;;;;;;5042468;28;20055;-53
2022/06/19 05:36:17;;;;;;;15.43;5.55;;;22.70;52.00;;;;;;5041829;28;20063;-54
2022/06/19 05:38:46;;;;;;;19.00;4.97;;;22.70;52.40;;;;;;5044059;28;20041;-55
2022/06/19 05:41:14;;;;;;;14.75;4.45;;;22.60;52.40;;;;;;5041430;28;20056;-57
2022/06/19 05:43:42;;;;;;;14.68;4.82;;;22.50;52.20;;;;;;5043349;28;20067;-55
2022/06/19 05:46:15;;;;;;;18.38;5.50;;;22.50;52.10;;;;;;5045958;28;20393;-56
2022/06/19 05:48:42;;;;;;;15.18;5.00;;;22.50;52.00;;;;;;5043897;28;20049;-48
2022/06/19 05:51:12;;;;;;;24.13;5.80;;;22.40;52.00;;;;;;5042932;28;20432;-56
2022/06/19 05:53:41;;;;;;;18.70;5.32;;;22.30;52.20;;;;;;5042253;28;20076;-52
2022/06/19 05:56:11;;;;;;;19.02;5.53;;;22.20;52.30;;;;;;5041355;28;20412;-54
2022/06/19 05:58:39;;;;;;;14.85;5.25;;;22.10;52.50;;;;;;5041026;28;20053;-54
2022/06/19 06:01:07;;;;;;;15.45;4.32;;;22.10;52.40;;;;;;5042782;28;20541;-53
2022/06/19 06:03:35;;;;;;;13.73;5.07;;;22.00;52.40;;;;;;5043067;28;20393;-56
2022/06/19 06:06:04;;;;;;;15.35;5.05;;;22.00;52.60;;;;;;5042237;28;20063;-52
2022/06/19 06:08:32;;;;;;;14.95;5.45;;;22.00;52.40;;;;;;5042017;28;20076;-51
2022/06/19 06:11:00;;;;;;;19.38;5.32;;;22.10;52.20;;;;;;5041822;28;20049;-53
2022/06/19 06:13:29;;;;;;;22.55;6.97;;;22.00;52.50;;;;;;5041924;28;20064;-55
2022/06/19 06:15:57;;;;;;;14.27;5.57;;;22.00;52.40;;;;;;5042740;28;20056;-45
2022/06/19 06:18:24;;;;;;;13.73;6.35;;;22.00;52.30;;;;;;5042042;28;20057;-56
2022/06/19 06:20:56;;;;;;;19.15;6.22;;;21.90;52.30;;;;;;5044524;28;20045;-57
2022/06/19 06:23:24;;;;;;;20.88;6.57;;;21.80;52.60;;;;;;5045702;28;20041;-55
2022/06/19 06:25:58;;;;;;;19.25;6.65;;;21.90;52.40;;;;;;5044200;28;20052;-56
2022/06/19 06:28:28;;;;;;;17.65;6.18;;;21.80;52.60;;;;;;5046169;28;20437;-53
2022/06/19 06:30:56;;;;;;;19.00;6.13;;;21.80;52.40;;;;;;5045935;28;20447;-54
2022/06/19 06:33:23;;;;;;;15.98;6.00;;;21.80;52.70;;;;;;5045381;28;20053;-49
2022/06/19 06:35:51;;;;;;;17.17;7.38;;;21.70;52.70;;;;;;5045345;28;20068;-53
2022/06/19 06:38:18;;;;;;;26.15;7.22;;;21.60;52.90;;;;;;5046197;28;20515;-46
2022/06/19 06:40:46;;;;;;;21.05;6.32;;;21.70;52.90;;;;;;5043292;28;20072;-47
2022/06/19 06:43:13;;;;;;;16.23;6.18;;;21.60;53.20;;;;;;5045837;28;20060;-57
2022/06/19 06:45:42;;;;;;;20.40;7.47;;;21.60;53.40;;;;;;5046336;28;20420;-59
2022/06/19 06:48:10;;;;;;;17.20;6.50;;;21.50;53.50;;;;;;5045674;28;20049;-51
2022/06/19 06:50:39;;;;;;;20.63;6.30;;;21.50;53.80;;;;;;5043870;28;20060;-59
2022/06/19 06:53:08;;;;;;;18.80;5.97;;;21.40;53.40;;;;;;5045617;28;20053;-60
2022/06/19 06:55:38;;;;;;;17.83;6.75;;;21.40;54.00;;;;;;5042786;28;20057;-49
2022/06/19 06:58:06;;;;;;;18.48;6.93;;;21.40;53.30;;;;;;5045739;28;20056;-58
2022/06/19 07:00:34;;;;;;;18.92;7.05;;;21.40;53.60;;;;;;5043185;28;20099;-57
2022/06/19 07:03:04;;;;;;;20.05;6.50;;;21.40;53.50;;;;;;5044534;28;20061;-60
2022/06/19 07:05:32;;;;;;;28.65;8.18;;;21.40;53.50;;;;;;5044032;28;20087;-56
2022/06/19 07:08:00;;;;;;;28.75;7.20;;;21.40;53.30;;;;;;5044432;28;20064;-54
2022/06/19 07:10:28;;;;;;;18.38;6.97;;;21.50;53.50;;;;;;5041033;28;20492;-53
2022/06/19 07:12:56;;;;;;;23.15;7.47;;;21.40;53.50;;;;;;5044787;28;20049;-59
2022/06/19 07:15:24;;;;;;;19.58;6.40;;;21.40;53.50;;;;;;5045158;28;20080;-59
2022/06/19 07:17:52;;;;;;;19.83;8.13;;;21.30;53.90;;;;;;5045145;28;20053;-52
2022/06/19 07:20:21;;;;;;;17.45;6.15;;;21.30;53.60;;;;;;5044524;28;20116;-52
2022/06/19 07:22:48;;;;;;;18.95;5.78;;;21.30;53.80;;;;;;5044839;28;20136;-56
2022/06/19 07:25:17;;;;;;;24.58;6.88;;;21.30;54.20;;;;;;5043880;28;20056;-51
2022/06/19 07:27:44;;;;;;;19.77;6.13;;;21.30;54.30;;;;;;5043974;28;20095;-56
2022/06/19 07:30:16;;;;;;;15.68;5.95;;;21.20;54.20;;;;;;5044507;28;20053;-51
2022/06/19 07:32:44;;;;;;;24.58;6.47;;;21.30;54.20;;;;;;5045018;28;20502;-59
2022/06/19 07:35:11;;;;;;;25.77;7.13;;;21.30;54.40;;;;;;5044868;28;20045;-59
2022/06/19 07:37:40;;;;;;;20.23;5.88;;;21.30;54.10;;;;;;5044876;28;20412;-52
2022/06/19 07:40:09;;;;;;;17.45;5.20;;;21.40;54.00;;;;;;5043361;28;20385;-56
2022/06/19 07:42:37;;;;;;;22.30;6.47;;;21.50;53.70;;;;;;5044834;28;20064;-50
2022/06/19 07:45:05;;;;;;;19.73;5.50;;;21.50;53.00;;;;;;5043780;28;20412;-49
2022/06/19 07:50:17;;;;;;;13.05;4.93;;;21.60;52.40;;;;;;5050925;28;20063;-55
2022/06/19 07:52:49;;;;;;;17.70;4.97;;;21.60;52.20;;;;;;5042315;28;20060;-56
2022/06/19 07:55:19;;;;;;;16.05;5.57;;;21.70;52.40;;;;;;5043607;28;20052;-59
2022/06/19 07:57:47;;;;;;;13.45;4.82;;;21.70;52.60;;;;;;5044516;28;20061;-51
2022/06/19 08:00:17;;;;;;;27.50;6.00;;;21.70;52.70;;;;;;5044086;28;20056;-61
2022/06/19 08:02:48;;;;;;;23.13;4.78;;;21.70;52.00;;;;;;5044222;28;20060;-56
2022/06/19 08:05:16;;;;;;;25.33;5.93;;;21.70;52.10;;;;;;5043912;28;20526;-44
2022/06/19 08:07:44;;;;;;;15.20;4.97;;;21.60;52.00;;;;;;5044017;28;20057;-49
2022/06/19 08:10:17;;;;;;;14.60;5.10;;;21.70;52.00;;;;;;5042662;28;20055;-56
2022/06/19 08:12:46;;;;;;;21.85;6.93;;;21.70;51.80;;;;;;5042610;28;20053;-50
2022/06/19 08:15:14;;;;;;;22.42;5.82;;;21.80;51.40;;;;;;5043951;28;20677;-48
2022/06/19 08:17:41;;;;;;;17.00;5.70;;;21.80;51.40;;;;;;5044527;28;20700;-53
2022/06/19 08:20:11;;;;;;;25.40;6.22;;;21.80;51.50;;;;;;5043088;28;20052;-45
2022/06/19 08:22:39;;;;;;;17.90;5.65;;;21.70;51.20;;;;;;5042352;28;20056;-58
2022/06/19 08:25:08;;;;;;;19.17;5.18;;;21.60;51.70;;;;;;5043881;28;20098;-51
2022/06/19 08:27:40;;;;;;;20.35;5.20;;;21.60;51.60;;;;;;5043320;28;20053;-45
2022/06/19 08:30:09;;;;;;;23.60;5.35;;;21.60;52.60;;;;;;5043106;28;20060;-48
2022/06/19 08:32:37;;;;;;;18.55;4.97;;;21.60;52.00;;;;;;5044518;28;20083;-55
2022/06/19 08:35:10;;;;;;;21.98;5.88;;;21.60;52.80;;;;;;5043986;28;20061;-57
2022/06/19 08:37:38;;;;;;;25.20;5.40;;;21.50;52.20;;;;;;5043705;28;20053;-48
2022/06/19 08:40:10;;;;;;;24.75;4.85;;;21.60;52.20;;;;;;5042818;28;20049;-58
2022/06/19 08:42:52;;;;;;;24.17;5.50;;;21.60;52.70;;;;;;5042655;28;20056;-58
2022/06/19 08:45:42;;;;;;;18.42;5.15;;;21.60;52.60;;;;;;5043732;28;20524;-54
2022/06/19 08:48:43;;;;;;;20.20;5.53;;;21.70;52.10;;;;;;5043101;28;20060;-46
2022/06/19 08:51:18;;;;;;;21.92;5.53;;;21.80;51.50;;;;;;5036960;28;20060;-54
2022/06/19 08:54:15;;;;;;;26.63;6.97;;;21.90;52.00;;;;;;5043438;28;20056;-55
2022/06/19 08:56:49;;;;;;;17.90;4.80;;;22.00;51.00;;;;;;5034870;28;20142;-56
2022/06/19 08:59:24;;;;;;;24.70;5.53;;;22.10;51.00;;;;;;5043356;28;20736;-51
2022/06/19 09:05:39;;;;;;;22.15;6.43;;;22.20;51.10;;;;;;5051163;28;20040;-57
2022/06/19 09:08:34;;;;;;;27.58;6.07;;;22.20;50.10;;;;;;5043212;28;20057;-59
2022/06/19 09:11:15;;;;;;;26.08;5.95;;;22.30;50.30;;;;;;5040458;28;20052;-46
2022/06/19 09:13:59;;;;;;;25.73;6.40;;;22.30;49.80;;;;;;5042213;28;20067;-49
2022/06/19 09:16:36;;;;;;;21.07;5.57;;;22.30;49.30;;;;;;5042341;28;21853;-45
2022/06/19 09:19:11;;;;;;;21.55;6.18;;;22.40;49.80;;;;;;5042574;28;21033;-57
2022/06/19 09:21:51;;;;;;;22.85;6.88;;;22.40;50.30;;;;;;5042622;28;20056;-56
2022/06/19 09:24:47;;;;;;;26.10;6.70;;;22.40;49.50;;;;;;5042493;28;20057;-55
2022/06/19 09:27:17;;;;;;;20.48;6.57;;;22.50;49.00;;;;;;5041504;28;20536;-57
2022/06/19 09:29:52;;;;;;;26.88;7.13;;;22.40;48.50;;;;;;5044135;28;20059;-49
2022/06/19 09:32:28;;;;;;;31.95;8.05;;;22.40;48.80;;;;;;5041548;28;20056;-56
2022/06/19 09:34:59;;;;;;;22.27;7.00;;;22.50;48.30;;;;;;5043298;28;20055;-56
2022/06/19 09:37:34;;;;;;;19.80;5.80;;;22.50;48.10;;;;;;5042597;28;20053;-54
2022/06/19 09:40:08;;;;;;;21.35;6.03;;;22.50;48.70;;;;;;5042347;28;20064;-58
2022/06/19 09:42:40;;;;;;;28.80;7.00;;;22.60;48.80;;;;;;5041860;28;20045;-47
2022/06/19 09:45:15;;;;;;;25.10;6.68;;;22.60;48.50;;;;;;5042635;28;20053;-48
2022/06/19 09:47:48;;;;;;;18.65;6.90;;;22.60;48.30;;;;;;5041237;28;20049;-53
2022/06/19 09:50:21;;;;;;;20.33;7.43;;;22.70;48.40;;;;;;5042024;28;20053;-53
2022/06/19 09:52:54;;;;;;;24.77;8.38;;;22.80;48.40;;;;;;5042400;28;20068;-49
2022/06/19 09:55:30;;;;;;;18.42;7.80;;;22.80;48.00;;;;;;5041106;28;20057;-57
2022/06/19 09:58:04;;;;;;;23.27;7.30;;;22.80;48.00;;;;;;5046150;28;20072;-50
2022/06/19 10:00:36;;;;;;;20.35;8.15;;;22.90;47.80;;;;;;5046316;28;20067;-56
2022/06/19 10:03:15;;;;;;;29.20;8.23;;;22.90;47.80;;;;;;5045281;28;20057;-55
2022/06/19 10:05:47;;;;;;;19.67;7.32;;;23.00;48.10;;;;;;5046188;28;20049;-57
2022/06/19 10:08:19;;;;;;;21.30;6.13;;;23.20;48.50;;;;;;5046617;28;20049;-58
2022/06/19 10:10:52;;;;;;;34.08;8.43;;;23.30;48.10;;;;;;5043447;28;20717;-59
2022/06/19 10:13:27;;;;;;;24.48;8.25;;;23.40;47.00;;;;;;5045812;28;20411;-54
2022/06/19 10:15:57;;;;;;;29.38;8.48;;;23.40;46.70;;;;;;5045824;28;20522;-47
2022/06/19 10:18:31;;;;;;;26.25;8.02;;;23.50;45.90;;;;;;5045972;28;20061;-56
2022/06/19 10:21:05;;;;;;;16.45;5.65;;;23.50;46.10;;;;;;5045293;28;20049;-58
2022/06/19 10:23:41;;;;;;;;;;;23.50;46.70;;;;;;5046261;28;20056;-57
2022/06/19 10:26:27;;;;;;;16.65;5.28;;;23.60;46.80;;;;;;5046120;28;19924;-56
2022/06/19 10:29:37;;;;;;;15.43;6.13;;;23.80;46.90;;;;;;5045439;28;20052;-56
2022/06/19 10:32:27;;;;;;;22.77;6.05;;;23.90;46.40;;;;;;5044534;28;20060;-55
2022/06/19 10:35:09;;;;;;;16.38;5.40;;;24.00;46.20;;;;;;5045107;28;20530;-55
2022/06/19 10:37:51;;;;;;;16.80;5.80;;;24.20;46.30;;;;;;5045895;28;20057;-56
2022/06/19 10:40:32;;;;;;;14.90;5.40;;;24.40;46.10;;;;;;5044120;28;20412;-54
2022/06/19 10:43:09;;;;;;;14.90;5.03;;;24.50;45.80;;;;;;5045322;28;20061;-54
2022/06/19 10:45:43;;;;;;;18.88;5.80;;;24.70;45.90;;;;;;5045042;28;20059;-53
2022/06/19 10:48:31;;;;;;;;;;;24.80;45.60;;;;;;5046124;28;20055;-57
2022/06/19 10:51:17;;;;;;;21.58;6.10;;;24.90;45.70;;;;;;5036510;28;20521;-53
2022/06/19 10:54:17;;;;;;;15.63;5.38;;;25.10;45.40;;;;;;5045354;28;20053;-57
2022/06/19 10:56:55;;;;;;;20.75;7.22;;;25.20;45.50;;;;;;5031049;28;20068;-50
2022/06/19 10:59:27;;;;;;;20.98;6.65;;;25.30;45.30;;;;;;5049313;28;20389;-50
2022/06/19 11:04:54;;;;;;;19.17;6.35;;;25.40;45.10;;;;;;5055401;28;20068;-52
2022/06/19 11:07:27;;;;;;;15.35;6.00;;;25.50;44.90;;;;;;5047517;28;20061;-53
2022/06/19 11:09:57;;;;;;;15.07;6.30;;;25.50;45.00;;;;;;5047888;28;20431;-51
2022/06/19 11:12:31;;;;;;;17.45;6.00;;;25.60;45.00;;;;;;5048429;28;20507;-51
2022/06/19 11:15:00;;;;;;;;;;;25.60;45.30;;;;;;5048310;28;20053;-58
2022/06/19 11:17:33;;;;;;;25.35;6.57;;;25.70;45.40;;;;;;5049925;28;19927;-56
2022/06/19 11:20:24;;;;;;;27.20;7.40;;;25.70;45.60;;;;;;5048962;28;20515;-50
2022/06/19 11:23:02;;;;;;;27.02;7.68;;;25.80;45.90;;;;;;5048729;28;20060;-55
2022/06/19 11:25:33;;;;;;;18.67;6.22;;;25.80;45.40;;;;;;5044370;28;20067;-56
2022/06/19 11:28:05;;;;;;;12.73;4.75;;;25.90;45.50;;;;;;5046762;28;20067;-56
2022/06/19 11:30:36;;;;;;;13.57;4.93;;;26.00;45.50;;;;;;5048613;28;20049;-58
2022/06/19 11:33:08;;;;;;;15.88;5.43;;;26.10;46.20;;;;;;5046970;28;20060;-55
2022/06/19 11:35:53;;;;;;;18.58;5.93;;;26.20;45.90;;;;;;5047303;28;20061;-58
2022/06/19 11:38:37;;;;;;;16.90;5.75;;;26.30;45.40;;;;;;5047822;28;20052;-56
2022/06/19 11:41:15;;;;;;;;;;;26.30;45.10;;;;;;5048867;28;20079;-56
2022/06/19 11:43:46;;;;;;;14.70;5.30;;;26.40;45.20;;;;;;5049279;28;19928;-58
2022/06/19 11:46:19;;;;;;;19.80;6.38;;;26.40;45.20;;;;;;5046628;28;20053;-58
2022/06/19 11:48:46;;;;;;;16.38;5.10;;;26.40;45.10;;;;;;5047529;28;20060;-52
2022/06/19 11:51:18;;;;;;;12.70;6.22;;;26.40;45.20;;;;;;5048029;28;20056;-56
2022/06/19 11:53:53;;;;;;;11.05;5.32;;;26.40;44.70;;;;;;5044872;28;20505;-56
2022/06/19 11:56:31;;;;;;;15.50;5.78;;;26.50;44.60;;;;;;5042316;28;20052;-56
2022/06/19 11:59:00;;;;;;;20.17;6.45;;;26.50;44.40;;;;;;5044811;28;20052;-58
2022/06/19 12:01:39;;;;;;;19.17;5.43;;;26.60;44.90;;;;;;5044022;28;20080;-54
2022/06/19 12:04:26;;;;;;;17.02;6.45;;;26.60;44.80;;;;;;5044620;28;20504;-54
2022/06/19 12:06:58;;;;;;;21.98;6.80;;;26.70;44.80;;;;;;5043795;28;20072;-55
2022/06/19 12:09:33;;;;;;;19.02;7.10;;;26.60;43.50;;;;;;5043830;28;20139;-56
2022/06/19 12:12:06;;;;;;;23.67;7.80;;;26.60;43.70;;;;;;5043130;28;20539;-56
2022/06/19 12:14:36;;;;;;;16.00;6.85;;;26.50;43.60;;;;;;5044198;28;20057;-51
2022/06/19 12:17:20;;;;;;;18.10;5.88;;;26.50;44.10;;;;;;5043682;28;20045;-56
2022/06/19 12:19:57;;;;;;;24.92;7.72;;;26.40;45.30;;;;;;5043857;28;20056;-54
2022/06/19 12:22:32;;;;;;;19.83;7.20;;;26.40;45.00;;;;;;5044307;28;20045;-55
2022/06/19 12:25:11;;;;;;;18.95;7.25;;;26.30;45.50;;;;;;5042959;28;20056;-47
2022/06/19 12:27:45;;;;;;;15.85;6.85;;;26.20;45.50;;;;;;5043776;28;20515;-57
2022/06/19 12:30:17;;;;;;;;;;;26.20;45.20;;;;;;5044002;28;20053;-51
2022/06/19 12:32:48;;;;;;;20.75;6.90;;;26.20;45.10;;;;;;5046269;28;20367;-58
2022/06/19 12:35:26;;;;;;;27.90;8.25;;;26.30;44.80;;;;;;5046212;28;20064;-56
2022/06/19 12:37:53;;;;;;;25.08;8.27;;;26.20;43.80;;;;;;5047937;28;20067;-56
2022/06/19 12:40:26;;;;;;;31.92;8.88;;;26.20;44.80;;;;;;5046148;28;20412;-56
2022/06/19 12:42:59;;;;;;;25.20;7.10;;;26.10;44.20;;;;;;5046208;28;20488;-55
2022/06/19 12:45:39;;;;;;;23.88;7.78;;;26.00;44.30;;;;;;5047137;28;20079;-54
2022/06/19 12:48:25;;;;;;;24.35;8.40;;;26.00;43.90;;;;;;5045951;28;20428;-52
2022/06/19 12:50:57;;;;;;;26.88;7.47;;;26.00;44.20;;;;;;5044142;28;20098;-45
2022/06/19 12:53:54;;;;;;;29.40;7.32;;;25.90;45.30;;;;;;5044459;28;20390;-55
2022/06/19 12:56:34;;;;;;;17.38;7.43;;;25.90;45.40;;;;;;5044193;28;20053;-59
2022/06/19 12:59:25;;;;;;;24.58;7.57;;;25.90;44.90;;;;;;5045941;28;20052;-56
2022/06/19 13:01:59;;;;;;;22.00;7.03;;;25.80;44.70;;;;;;5044494;28;20048;-57
2022/06/19 13:04:35;;;;;;;27.35;6.72;;;25.70;44.40;;;;;;5044304;28;20049;-57
2022/06/19 13:07:13;;;;;;;23.20;7.18;;;25.70;45.50;;;;;;5044436;28;20049;-54
2022/06/19 13:09:55;;;;;;;21.75;6.90;;;25.70;44.90;;;;;;5044452;28;20562;-60
2022/06/19 13:12:38;;;;;;;22.67;7.72;;;25.70;45.80;;;;;;5042087;28;20063;-56